createdAt,value
2019-02-23T00:00:50.568Z,4.10
2019-02-23T00:03:17.713Z,4.00
2019-02-23T00:05:44.832Z,4.00
2019-02-23T00:08:12.108Z,4.00
2019-02-23T00:10:39.068Z,4.00
2019-02-23T00:13:06.256Z,3.90
2019-02-23T00:15:33.276Z,3.80
2019-02-23T00:18:00.428Z,3.80
2019-02-23T00:20:27.561Z,3.70
2019-02-23T00:22:54.376Z,3.60
2019-02-23T00:25:21.309Z,3.70
2019-02-23T00:27:48.196Z,3.70
2019-02-23T00:30:15.264Z,3.70
2019-02-23T00:32:42.359Z,3.60
2019-02-23T00:35:09.372Z,3.60
2019-02-23T00:37:36.176Z,3.70
2019-02-23T00:40:03.360Z,3.70
2019-02-23T00:42:30.192Z,3.60
2019-02-23T00:44:57.284Z,3.40
2019-02-23T00:47:24.347Z,3.40
2019-02-23T00:49:51.163Z,3.30
2019-02-23T00:52:18.223Z,3.20
2019-02-23T00:54:45.021Z,3.20
2019-02-23T00:57:11.944Z,3.10
2019-02-23T00:59:38.996Z,3.10
2019-02-23T01:02:05.945Z,3.00
2019-02-23T01:04:32.750Z,3.00
2019-02-23T01:06:59.668Z,3.10
2019-02-23T01:09:26.720Z,3.20
2019-02-23T01:11:53.542Z,3.30
2019-02-23T01:14:20.347Z,3.40
2019-02-23T01:16:47.263Z,3.40
2019-02-23T01:19:14.072Z,3.40
2019-02-23T01:21:41.029Z,3.20
2019-02-23T01:24:08.375Z,3.30
2019-02-23T01:26:35.193Z,3.10
2019-02-23T01:29:02.098Z,3.10
2019-02-23T01:31:29.375Z,3.10
2019-02-23T01:33:56.305Z,2.80
2019-02-23T01:36:23.245Z,2.80
2019-02-23T01:38:50.688Z,2.60
2019-02-23T01:41:17.772Z,2.60
2019-02-23T01:43:48.885Z,2.80
2019-02-23T01:46:16.145Z,2.80
2019-02-23T01:48:43.257Z,2.70
2019-02-23T01:51:10.168Z,2.60
2019-02-23T01:53:36.990Z,2.50
2019-02-23T01:56:04.400Z,2.70
2019-02-23T01:58:31.325Z,2.60
2019-02-23T02:00:58.805Z,2.50
2019-02-23T02:03:26.345Z,2.50
2019-02-23T02:05:53.605Z,2.50
2019-02-23T02:08:20.625Z,2.70
2019-02-23T02:10:47.645Z,2.60
2019-02-23T02:13:14.647Z,2.40
2019-02-23T02:15:41.852Z,2.40
2019-02-23T02:18:08.813Z,2.50
2019-02-23T02:20:35.640Z,2.70
2019-02-23T02:23:02.934Z,2.90
2019-02-23T02:25:30.724Z,3.00
2019-02-23T02:27:57.813Z,2.90
2019-02-23T02:30:24.625Z,2.90
2019-02-23T02:32:51.701Z,3.00
2019-02-23T02:35:18.873Z,3.00
2019-02-23T02:37:45.944Z,3.00
2019-02-23T02:40:12.869Z,3.10
2019-02-23T02:42:40.173Z,3.20
2019-02-23T02:45:08.393Z,3.30
2019-02-23T02:47:35.205Z,3.20
2019-02-23T02:50:02.141Z,3.40
2019-02-23T02:52:29.312Z,3.50
2019-02-23T02:54:56.376Z,3.50
2019-02-23T02:57:23.464Z,3.50
2019-02-23T02:59:50.533Z,3.30
2019-02-23T03:02:17.798Z,3.30
2019-02-23T03:04:44.617Z,3.30
2019-02-23T03:07:11.678Z,3.10
2019-02-23T03:09:38.538Z,3.10
2019-02-23T03:12:05.444Z,3.20
2019-02-23T03:14:32.417Z,3.10
2019-02-23T03:16:59.320Z,3.10
2019-02-23T03:19:26.389Z,3.20
2019-02-23T03:21:53.622Z,3.20
2019-02-23T03:24:20.721Z,3.20
2019-02-23T03:26:47.757Z,3.10
2019-02-23T03:29:14.577Z,3.00
2019-02-23T03:31:41.386Z,2.90
2019-02-23T03:34:08.323Z,2.70
2019-02-23T03:36:35.981Z,2.50
2019-02-23T03:39:04.052Z,2.50
2019-02-23T03:41:31.744Z,2.30
2019-02-23T03:43:58.850Z,2.20
2019-02-23T03:46:25.774Z,2.20
2019-02-23T03:48:52.832Z,2.20
2019-02-23T03:51:19.660Z,2.10
2019-02-23T03:53:46.613Z,2.10
2019-02-23T03:56:13.837Z,2.10
2019-02-23T03:58:40.646Z,1.90
2019-02-23T04:01:08.009Z,1.90
2019-02-23T04:03:35.025Z,1.90
2019-02-23T04:06:02.240Z,1.90
2019-02-23T04:08:29.234Z,1.90
2019-02-23T04:10:56.165Z,1.70
2019-02-23T04:13:22.976Z,1.70
2019-02-23T04:15:50.053Z,1.70
2019-02-23T04:18:17.229Z,1.60
2019-02-23T04:20:44.114Z,1.90
2019-02-23T04:23:11.162Z,2.00
2019-02-23T04:25:37.978Z,2.00
2019-02-23T04:28:04.905Z,1.90
2019-02-23T04:30:32.200Z,1.70
2019-02-23T04:32:59.059Z,1.80
2019-02-23T04:35:26.237Z,1.90
2019-02-23T04:37:53.053Z,1.90
2019-02-23T04:40:20.070Z,2.10
2019-02-23T04:42:46.892Z,2.10
2019-02-23T04:45:14.100Z,2.10
2019-02-23T04:47:41.016Z,2.20
2019-02-23T04:50:08.144Z,2.10
2019-02-23T04:52:35.312Z,1.90
2019-02-23T04:55:02.332Z,1.50
2019-02-23T04:57:29.256Z,1.20
2019-02-23T04:59:56.300Z,1.30
2019-02-23T05:02:23.729Z,1.40
2019-02-23T05:04:50.788Z,1.60
2019-02-23T05:07:18.219Z,1.60
2019-02-23T05:09:45.024Z,1.60
2019-02-23T05:12:12.465Z,1.40
2019-02-23T05:14:39.634Z,1.10
2019-02-23T05:17:06.445Z,0.90
2019-02-23T05:19:33.764Z,0.90
2019-02-23T05:22:00.580Z,0.80
2019-02-23T05:24:27.387Z,0.80
2019-02-23T05:26:54.557Z,0.80
2019-02-23T05:29:21.900Z,0.80
2019-02-23T05:31:48.973Z,0.90
2019-02-23T05:34:16.076Z,0.90
2019-02-23T05:36:43.018Z,0.80
2019-02-23T05:39:09.822Z,0.80
2019-02-23T05:41:36.932Z,0.80
2019-02-23T05:44:03.743Z,0.70
2019-02-23T05:46:30.889Z,0.70
2019-02-23T05:48:57.967Z,0.80
2019-02-23T05:51:24.885Z,0.70
2019-02-23T05:53:51.706Z,0.70
2019-02-23T05:56:18.829Z,0.70
2019-02-23T05:58:46.228Z,0.80
2019-02-23T06:01:13.168Z,0.90
2019-02-23T06:03:40.089Z,0.80
2019-02-23T06:06:07.683Z,0.80
2019-02-23T06:08:34.574Z,0.70
2019-02-23T06:11:01.382Z,0.80
2019-02-23T06:13:28.205Z,0.80
2019-02-23T06:15:55.014Z,0.60
2019-02-23T06:18:21.836Z,0.70
2019-02-23T06:20:48.900Z,0.60
2019-02-23T06:23:15.724Z,0.50
2019-02-23T06:25:42.778Z,0.50
2019-02-23T06:28:10.165Z,0.40
2019-02-23T06:30:37.472Z,0.40
2019-02-23T06:33:04.749Z,0.40
2019-02-23T06:35:31.560Z,0.50
2019-02-23T06:37:58.745Z,0.60
2019-02-23T06:40:25.665Z,0.40
2019-02-23T06:42:52.489Z,0.40
2019-02-23T06:45:19.629Z,0.60
2019-02-23T06:47:46.787Z,0.60
2019-02-23T06:50:13.618Z,0.40
2019-02-23T06:52:40.736Z,0.30
2019-02-23T06:55:07.768Z,0.30
2019-02-23T06:57:34.674Z,0.20
2019-02-23T07:00:02.065Z,0.00
2019-02-23T07:02:28.869Z,-0.10
2019-02-23T07:04:55.699Z,0.00
2019-02-23T07:07:22.498Z,0.10
2019-02-23T07:09:49.324Z,0.10
2019-02-23T07:12:16.134Z,0.10
2019-02-23T07:14:42.961Z,0.00
2019-02-23T07:17:10.145Z,0.10
2019-02-23T07:19:37.079Z,0.00
2019-02-23T07:22:14.817Z,0.10
2019-02-23T07:24:33.560Z,0.10
2019-02-23T07:27:00.369Z,0.00
2019-02-23T07:29:27.282Z,0.10
2019-02-23T07:31:54.345Z,0.20
2019-02-23T07:34:21.401Z,0.20
2019-02-23T07:36:48.221Z,0.20
2019-02-23T07:39:15.029Z,0.20
2019-02-23T07:41:42.377Z,0.30
2019-02-23T07:44:09.777Z,0.30
2019-02-23T07:46:37.049Z,0.30
2019-02-23T07:49:03.869Z,0.30
2019-02-23T07:51:30.785Z,0.30
2019-02-23T07:53:57.851Z,0.30
2019-02-23T07:56:24.676Z,0.40
2019-02-23T07:58:51.597Z,0.40
2019-02-23T08:01:18.522Z,0.40
2019-02-23T08:03:45.334Z,0.40
2019-02-23T08:06:12.431Z,0.40
2019-02-23T08:08:39.893Z,0.50
2019-02-23T08:11:06.929Z,0.50
2019-02-23T08:13:33.976Z,0.70
2019-02-23T08:16:01.009Z,0.60
2019-02-23T08:18:28.181Z,0.60
2019-02-23T08:20:55.277Z,0.70
2019-02-23T08:23:22.424Z,0.80
2019-02-23T08:25:49.511Z,0.90
2019-02-23T08:28:16.329Z,0.90
2019-02-23T08:30:43.495Z,0.90
2019-02-23T08:33:10.318Z,0.90
2019-02-23T08:35:37.372Z,0.90
2019-02-23T08:38:04.294Z,1.10
2019-02-23T08:40:31.204Z,1.00
2019-02-23T08:42:58.041Z,1.00
2019-02-23T08:45:25.300Z,1.00
2019-02-23T08:47:52.342Z,1.10
2019-02-23T08:50:19.248Z,1.20
2019-02-23T08:52:50.014Z,1.20
2019-02-23T08:55:14.769Z,1.10
2019-02-23T08:57:41.585Z,1.00
2019-02-23T09:00:11.192Z,1.10
2019-02-23T09:02:38.008Z,1.20
2019-02-23T09:05:06.225Z,1.30
2019-02-23T09:07:33.045Z,1.50
2019-02-23T09:10:00.205Z,1.50
2019-02-23T09:12:27.297Z,1.40
2019-02-23T09:14:54.108Z,1.50
2019-02-23T09:17:20.928Z,1.60
2019-02-23T09:19:47.992Z,1.60
2019-02-23T09:22:14.810Z,1.70
2019-02-23T09:24:41.632Z,1.70
2019-02-23T09:27:09.144Z,1.80
2019-02-23T09:29:35.969Z,1.90
2019-02-23T09:32:02.874Z,2.00
2019-02-23T09:34:29.977Z,2.10
2019-02-23T09:36:57.266Z,2.20
2019-02-23T09:39:24.083Z,2.20
2019-02-23T09:41:51.508Z,2.30
2019-02-23T09:44:18.653Z,2.40
2019-02-23T09:46:45.558Z,2.40
2019-02-23T09:49:12.634Z,2.40
2019-02-23T09:51:39.441Z,2.50
2019-02-23T09:54:06.640Z,2.70
2019-02-23T09:56:33.689Z,2.70
2019-02-23T09:59:00.604Z,2.80
2019-02-23T10:01:27.917Z,2.80
2019-02-23T10:03:54.729Z,2.80
2019-02-23T10:06:21.893Z,2.70
2019-02-23T10:08:49.325Z,2.90
2019-02-23T10:11:16.137Z,2.90
2019-02-23T10:13:43.201Z,3.10
2019-02-23T10:16:11.081Z,3.10
2019-02-23T10:18:37.889Z,3.20
2019-02-23T10:21:04.753Z,3.10
2019-02-23T10:23:31.873Z,3.20
2019-02-23T10:25:59.061Z,3.20
2019-02-23T10:28:26.124Z,3.30
2019-02-23T10:30:52.944Z,3.30
2019-02-23T10:33:19.773Z,3.30
2019-02-23T10:35:46.688Z,3.50
2019-02-23T10:38:13.599Z,3.50
2019-02-23T10:40:40.605Z,3.50
2019-02-23T10:43:07.671Z,3.60
2019-02-23T10:45:34.677Z,3.70
2019-02-23T10:48:01.725Z,3.80
2019-02-23T10:50:28.740Z,3.90
2019-02-23T10:52:56.186Z,3.90
2019-02-23T10:55:23.028Z,3.90
2019-02-23T10:57:49.836Z,4.00
2019-02-23T11:00:19.154Z,4.10
2019-02-23T11:02:48.414Z,4.10
2019-02-23T11:05:15.842Z,4.20
2019-02-23T11:07:42.741Z,4.30
2019-02-23T11:10:09.773Z,4.20
2019-02-23T11:12:36.689Z,4.20
2019-02-23T11:15:04.069Z,4.30
2019-02-23T11:17:31.185Z,4.40
2019-02-23T11:19:58.341Z,4.40
2019-02-23T11:22:25.609Z,4.40
2019-02-23T11:24:52.792Z,4.50
2019-02-23T11:27:20.033Z,4.60
2019-02-23T11:29:46.940Z,4.60
2019-02-23T11:32:13.859Z,4.60
2019-02-23T11:34:40.913Z,4.70
2019-02-23T11:37:07.865Z,4.70
2019-02-23T11:39:34.913Z,4.70
2019-02-23T11:42:02.088Z,4.70
2019-02-23T11:44:29.133Z,4.80
2019-02-23T11:47:03.056Z,5.00
2019-02-23T11:49:24.765Z,5.00
2019-02-23T11:51:51.690Z,5.10
2019-02-23T11:54:18.621Z,5.00
2019-02-23T11:56:45.793Z,5.00
2019-02-23T11:59:12.904Z,5.10
2019-02-23T12:01:40.321Z,5.10
2019-02-23T12:04:07.136Z,5.10
2019-02-23T12:06:34.073Z,5.20
2019-02-23T12:09:01.024Z,5.20
2019-02-23T12:11:28.165Z,5.30
2019-02-23T12:13:54.977Z,5.20
2019-02-23T12:16:21.913Z,5.20
2019-02-23T12:18:49.009Z,5.30
2019-02-23T12:21:15.925Z,5.20
2019-02-23T12:23:43.101Z,5.30
2019-02-23T12:26:09.913Z,5.40
2019-02-23T12:28:36.745Z,5.50
2019-02-23T12:31:03.566Z,5.40
2019-02-23T12:33:30.429Z,5.50
2019-02-23T12:35:57.367Z,5.50
2019-02-23T12:38:24.380Z,5.60
2019-02-23T12:40:51.984Z,5.60
2019-02-23T12:43:19.152Z,5.70
2019-02-23T12:45:46.397Z,5.60
2019-02-23T12:48:13.505Z,5.70
2019-02-23T12:50:40.861Z,5.70
2019-02-23T12:53:07.985Z,5.80
2019-02-23T12:55:35.188Z,5.90
2019-02-23T12:58:02.321Z,6.00
2019-02-23T13:00:29.337Z,6.00
2019-02-23T13:02:56.280Z,6.10
2019-02-23T13:05:23.456Z,6.00
2019-02-23T13:07:50.775Z,6.10
2019-02-23T13:10:18.047Z,6.10
2019-02-23T13:13:15.960Z,6.10
2019-02-23T13:16:02.129Z,6.10
2019-02-23T13:19:05.611Z,6.10
2019-02-23T13:21:57.369Z,6.20
2019-02-23T13:25:05.403Z,6.20
2019-02-23T13:28:14.340Z,6.30
2019-02-23T13:31:14.864Z,6.50
2019-02-23T13:34:01.881Z,6.50
2019-02-23T13:36:51.873Z,6.60
2019-02-23T13:40:09.986Z,6.50
2019-02-23T13:42:56.666Z,6.50
2019-02-23T13:46:08.849Z,6.40
2019-02-23T13:49:18.291Z,6.50
2019-02-23T13:52:27.584Z,6.40
2019-02-23T13:55:36.636Z,6.50
2019-02-23T13:58:18.982Z,6.50
2019-02-23T14:01:31.666Z,6.40
2019-02-23T14:04:43.931Z,6.50
2019-02-23T14:07:53.293Z,6.50
2019-02-23T14:10:47.245Z,6.50
2019-02-23T14:13:52.684Z,6.50
2019-02-23T14:16:25.986Z,6.50
2019-02-23T14:19:07.880Z,6.50
2019-02-23T14:22:26.042Z,6.50
2019-02-23T14:25:07.632Z,6.60
2019-02-23T14:28:15.015Z,6.70
2019-02-23T14:31:36.129Z,6.70
2019-02-23T14:34:20.526Z,6.80
2019-02-23T14:37:18.105Z,6.70
2019-02-23T14:40:32.236Z,6.70
2019-02-23T14:43:45.836Z,6.70
2019-02-23T14:47:06.729Z,6.70
2019-02-23T14:50:27.672Z,6.70
2019-02-23T14:53:38.120Z,6.70
2019-02-23T14:56:27.178Z,6.80
2019-02-23T14:59:33.836Z,6.80
2019-02-23T15:02:37.840Z,6.80
2019-02-23T15:05:46.288Z,6.70
2019-02-23T15:08:45.667Z,6.70
2019-02-23T15:11:54.333Z,6.60
2019-02-23T15:14:51.969Z,6.60
2019-02-23T15:18:11.991Z,6.60
2019-02-23T15:20:52.584Z,6.50
2019-02-23T15:23:51.196Z,6.60
2019-02-23T15:26:35.753Z,6.60
2019-02-23T15:29:18.999Z,6.60
2019-02-23T15:32:29.590Z,6.60
2019-02-23T15:35:14.005Z,6.50
2019-02-23T15:38:56.332Z,6.60
2019-02-23T15:42:04.771Z,6.60
2019-02-23T15:45:25.736Z,6.50
2019-02-23T15:48:37.680Z,6.50
2019-02-23T15:51:04.813Z,6.40
2019-02-23T15:53:32.245Z,6.40
2019-02-23T15:55:59.332Z,6.40
2019-02-23T15:58:26.165Z,6.50
2019-02-23T16:00:53.577Z,6.40
2019-02-23T16:03:20.475Z,6.40
2019-02-23T16:05:47.812Z,6.50
2019-02-23T16:08:15.621Z,6.30
2019-02-23T16:10:43.053Z,6.30
2019-02-23T16:13:10.888Z,6.30
2019-02-23T16:15:38.171Z,6.30
2019-02-23T16:18:05.334Z,6.30
2019-02-23T16:20:32.745Z,6.20
2019-02-23T16:23:00.595Z,6.20
2019-02-23T16:25:38.000Z,6.20
2019-02-23T16:27:57.096Z,6.10
2019-02-23T16:30:24.035Z,6.10
2019-02-23T16:32:51.662Z,6.00
2019-02-23T16:35:18.481Z,6.00
2019-02-23T16:37:45.856Z,6.00
2019-02-23T16:40:13.037Z,6.10
2019-02-23T16:42:39.897Z,6.00
2019-02-23T16:45:07.077Z,6.00
2019-02-23T16:47:34.430Z,6.00
2019-02-23T16:50:01.513Z,6.00
2019-02-23T16:52:28.818Z,5.90
2019-02-23T16:54:55.673Z,5.80
2019-02-23T16:57:22.802Z,5.80
2019-02-23T16:59:49.970Z,5.90
2019-02-23T17:02:17.051Z,6.00
2019-02-23T17:04:53.953Z,6.20
2019-02-23T17:07:13.015Z,6.10
2019-02-23T17:09:40.442Z,5.80
2019-02-23T17:12:08.057Z,5.60
2019-02-23T17:14:35.062Z,5.50
2019-02-23T17:17:02.162Z,5.50
2019-02-23T17:19:29.306Z,5.40
2019-02-23T17:21:56.477Z,5.30
2019-02-23T17:24:23.681Z,5.30
2019-02-23T17:26:50.909Z,5.30
2019-02-23T17:29:18.352Z,5.30
2019-02-23T17:31:46.273Z,5.20
2019-02-23T17:34:13.432Z,5.20
2019-02-23T17:36:40.560Z,5.10
2019-02-23T17:39:09.679Z,5.10
2019-02-23T17:41:36.892Z,5.10
2019-02-23T17:44:03.757Z,5.10
2019-02-23T17:46:31.224Z,5.10
2019-02-23T17:48:58.246Z,5.00
2019-02-23T17:51:25.189Z,4.90
2019-02-23T17:53:52.394Z,4.90
2019-02-23T17:56:19.464Z,4.80
2019-02-23T17:58:46.320Z,4.70
2019-02-23T18:01:13.344Z,4.60
2019-02-23T18:03:40.160Z,4.40
2019-02-23T18:06:06.985Z,4.40
2019-02-23T18:08:33.832Z,4.30
2019-02-23T18:11:00.798Z,4.20
2019-02-23T18:13:27.605Z,4.10
2019-02-23T18:15:55.037Z,4.10
2019-02-23T18:18:22.109Z,4.00
2019-02-23T18:20:49.107Z,4.00
2019-02-23T18:23:16.954Z,4.00
2019-02-23T18:25:44.057Z,3.90
2019-02-23T18:28:10.977Z,3.80
2019-02-23T18:30:38.053Z,3.80
2019-02-23T18:33:05.257Z,3.70
2019-02-23T18:35:32.506Z,3.70
2019-02-23T18:38:00.066Z,3.70
2019-02-23T18:40:27.462Z,3.80
2019-02-23T18:42:54.466Z,3.80
2019-02-23T18:45:21.657Z,3.80
2019-02-23T18:47:48.624Z,3.90
2019-02-23T18:50:15.758Z,3.90
2019-02-23T18:52:42.873Z,3.90
2019-02-23T18:55:10.081Z,3.90
2019-02-23T18:57:37.289Z,3.90
2019-02-23T19:00:04.995Z,3.90
2019-02-23T19:02:32.533Z,3.90
2019-02-23T19:04:59.870Z,3.90
2019-02-23T19:07:27.106Z,3.90
2019-02-23T19:09:54.391Z,3.80
2019-02-23T19:12:22.185Z,3.60
2019-02-23T19:14:49.481Z,3.50
2019-02-23T19:17:16.660Z,3.50
2019-02-23T19:19:43.971Z,3.30
2019-02-23T19:22:11.621Z,3.10
2019-02-23T19:24:39.461Z,3.00
2019-02-23T19:27:06.611Z,3.00
2019-02-23T19:29:33.957Z,3.10
2019-02-23T19:32:01.043Z,3.10
2019-02-23T19:34:27.872Z,3.30
2019-02-23T19:36:54.790Z,3.30
2019-02-23T19:39:21.732Z,3.30
2019-02-23T19:41:50.308Z,3.20
2019-02-23T19:44:17.251Z,3.00
2019-02-23T19:46:51.212Z,2.80
2019-02-23T19:49:18.038Z,2.70
2019-02-23T19:51:44.985Z,2.60
2019-02-23T19:54:13.750Z,2.40
2019-02-23T19:56:46.603Z,2.10
2019-02-23T19:59:09.777Z,1.90
2019-02-23T20:01:36.813Z,2.00
2019-02-23T20:04:03.624Z,2.10
2019-02-23T20:06:30.985Z,2.10
2019-02-23T20:08:58.165Z,2.10
2019-02-23T20:11:24.978Z,2.10
2019-02-23T20:13:51.827Z,2.40
2019-02-23T20:16:18.835Z,2.50
2019-02-23T20:18:45.877Z,2.50
2019-02-23T20:21:12.948Z,2.50
2019-02-23T20:23:39.781Z,2.60
2019-02-23T20:26:06.589Z,2.80
2019-02-23T20:28:33.432Z,2.90
2019-02-23T20:31:00.352Z,2.80
2019-02-23T20:33:30.880Z,2.60
2019-02-23T20:35:57.933Z,2.50
2019-02-23T20:38:25.025Z,2.50
2019-02-23T20:40:52.317Z,2.50
2019-02-23T20:43:19.395Z,2.50
2019-02-23T20:45:46.513Z,2.40
2019-02-23T20:48:13.528Z,2.30
2019-02-23T20:50:40.453Z,2.40
2019-02-23T20:53:08.269Z,2.50
2019-02-23T20:55:35.229Z,2.40
2019-02-23T20:58:02.042Z,2.40
2019-02-23T21:00:29.012Z,2.40
2019-02-23T21:02:56.328Z,2.40
2019-02-23T21:05:24.032Z,2.40
2019-02-23T21:07:50.944Z,2.40
2019-02-23T21:10:17.786Z,2.50
2019-02-23T21:12:44.993Z,2.30
2019-02-23T21:15:12.329Z,2.30
2019-02-23T21:17:39.534Z,2.30
2019-02-23T21:20:06.916Z,2.30
2019-02-23T21:22:33.889Z,2.20
2019-02-23T21:25:01.252Z,2.30
2019-02-23T21:27:28.101Z,2.20
2019-02-23T21:29:54.905Z,2.10
2019-02-23T21:32:22.099Z,2.10
2019-02-23T21:34:49.371Z,2.10
2019-02-23T21:37:16.281Z,2.00
2019-02-23T21:39:43.369Z,2.00
2019-02-23T21:42:10.329Z,2.10
2019-02-23T21:44:37.800Z,2.10
2019-02-23T21:47:04.718Z,2.10
2019-02-23T21:49:31.657Z,2.20
2019-02-23T21:51:58.852Z,2.20
2019-02-23T21:54:25.875Z,2.20
2019-02-23T21:56:53.265Z,2.10
2019-02-23T21:59:20.792Z,2.00
2019-02-23T22:01:48.087Z,1.90
2019-02-23T22:04:15.549Z,2.00
2019-02-23T22:06:42.999Z,2.00
2019-02-23T22:09:10.744Z,1.90
2019-02-23T22:11:37.947Z,1.80
2019-02-23T22:14:05.133Z,1.70
2019-02-23T22:16:32.672Z,1.60
2019-02-23T22:18:59.638Z,1.60
2019-02-23T22:21:26.998Z,1.60
2019-02-23T22:23:54.545Z,1.50
2019-02-23T22:26:21.453Z,1.60
2019-02-23T22:28:48.442Z,1.60
2019-02-23T22:31:15.626Z,1.60
2019-02-23T22:33:42.796Z,1.50
2019-02-23T22:36:10.158Z,1.50
2019-02-23T22:38:37.357Z,1.40
2019-02-23T22:41:04.278Z,1.40
2019-02-23T22:43:31.728Z,1.40
2019-02-23T22:45:58.575Z,1.40
2019-02-23T22:48:25.510Z,1.50
2019-02-23T22:50:53.002Z,1.60
2019-02-23T22:53:20.080Z,1.60
2019-02-23T22:55:47.593Z,1.60
2019-02-23T22:58:14.809Z,1.50
2019-02-23T23:00:59.125Z,1.30
2019-02-23T23:03:26.053Z,1.20
2019-02-23T23:05:53.217Z,1.20
2019-02-23T23:08:20.605Z,1.20
2019-02-23T23:10:47.608Z,1.20
2019-02-23T23:13:14.784Z,1.20
2019-02-23T23:15:41.740Z,1.30
2019-02-23T23:18:08.781Z,1.30
2019-02-23T23:20:35.692Z,1.20
2019-02-23T23:23:02.837Z,1.20
2019-02-23T23:25:30.425Z,1.20
2019-02-23T23:27:57.413Z,1.10
2019-02-23T23:30:24.969Z,1.20
2019-02-23T23:32:52.266Z,1.20
2019-02-23T23:35:19.287Z,1.00
2019-02-23T23:37:46.146Z,1.00
2019-02-23T23:40:13.332Z,1.00
2019-02-23T23:42:40.580Z,1.00
2019-02-23T23:45:07.896Z,1.10
2019-02-23T23:47:34.997Z,1.10
2019-02-23T23:50:01.825Z,1.20
2019-02-23T23:52:28.820Z,1.20
2019-02-23T23:54:55.760Z,1.10
2019-02-23T23:57:22.660Z,1.20
2019-02-23T23:59:49.585Z,1.20
